Nearby METAR Reports

 

KSJC - San Jose, California, USA
Distance from station: NE 9mi, 14km
Updated: 01,20/2020 6:53am
Clear
Clear
 Wind from calm
Wind: Calm
Temperature: 45°F , 7°C
Dew Point: 41°F , 5°C
Humidity: 87%
Barometer: 30.02 inHg , 1016.6 hPa
Clouds: Clear
Visibility: 10 miles , 16 km
2020/01/20 11:53 KSJC 201153Z AUTO 00000KT 10SM CLR 07/05 A3002 RMK AO2 SLP164 T00720050 10094 20072 58004 $
KNUQ - Moffett Nas/Mtn, California, USA
Distance from station: N 9mi, 14km
Updated: 11,21/2019 11:56am
NOT Current

 
Barometer: 29.86 inHg , 1011.2 hPa
2019/11/21 16:56 KNUQ 211656Z AUTO A2986 RMK AO2 SLP116 PWINO $
KPAO - Palo Alto, California, USA
Distance from station: NNW 14mi, 23km
Updated: 01,19/2020 11:47pm
NOT Current
Mostly cloudy
Mostly cloudy
 Wind from calm
Wind: Calm
Temperature: 46°F , 8°C
Dew Point: 43°F , 6°C
Humidity: 87%
Barometer: 30.08 inHg , 1018.6 hPa
Clouds: Mostly cloudy
Visibility: 10 miles , 16 km
Cloud details: Mostly cloudy 12000 ft
2020/01/20 04:47 KPAO 200447Z 00000KT 10SM BKN120 08/06 A3008 RMK LAST
 
KRHV - San Jose/Reid, California, USA
Distance from station: ENE 12mi, 19km
Updated: 01,20/2020 12:50am
NOT Current
Overcast
Overcast
 Wind from calm
Wind: Calm
Temperature: 46°F , 8°C
Dew Point: 41°F , 5°C
Humidity: 82%
Barometer: 30.06 inHg , 1017.9 hPa
Clouds: Overcast
Visibility: 10 miles , 16 km
Cloud details: Overcast 15000 ft
2020/01/20 05:50 KRHV 200550Z 00000KT 10SM OVC150 08/05 A3006 RMK LAST
KOAK - Oakland, California, USA
Distance from station: NNW 31mi, 50km
Updated: 01,20/2020 6:53am
Overcast
Overcast
 Wind from calm
Wind: Calm
Temperature: 46°F , 8°C
Dew Point: 41°F , 5°C
Humidity: 82%
Barometer: 30.03 inHg , 1016.9 hPa
Clouds: Overcast
Visibility: 10 miles , 16 km
Cloud details: Few Clouds 1200 ft
Mostly cloudy 15000 ft
Overcast 20000 ft
2020/01/20 11:53 KOAK 201153Z 00000KT 10SM FEW012 BKN150 OVC200 08/05 A3003 RMK AO2 SLP169 T00830050 10100 20078 58003
KSQL - San Carlos Airpo, California, USA
Distance from station: NW 21mi, 34km
Updated: 01,20/2020 6:55am
Few Clouds
Few Clouds
 Wind from calm
Wind: Calm
Temperature: 46°F , 8°C
Dew Point: 41°F , 5°C
Humidity: 82%
Barometer: 30.02 inHg , 1016.6 hPa
Clouds: Few Clouds
Visibility: 10 miles , 16 km
Cloud details: Few Clouds 12000 ft
2020/01/20 11:55 KSQL 201155Z AUTO 00000KT 10SM FEW120 08/05 A3002 RMK AO2
 
KSFO - San Francisco, California, USA
Distance from station: NW 30mi, 49km
Updated: 01,20/2020 6:56am
Overcast
Overcast
 Wind from calm
Wind: Calm
Temperature: 48°F , 9°C
Dew Point: 39°F , 4°C
Humidity: 71%
Barometer: 30.01 inHg , 1016.3 hPa
Clouds: Overcast
Visibility: 10 miles , 16 km
Cloud details: Overcast 14000 ft
2020/01/20 11:56 KSFO 201156Z 00000KT 10SM OVC140 09/04 A3001 RMK AO2 SLP163 T00940044 10100 20083 58005
KE16 - San Martin, California, USA
Distance from station: ESE 27mi, 43km
Updated: 11,14/2019 4:35am
NOT Current
Overcast
Overcast
 Wind from SE
Wind: SE 7 mph , 11 km/h
Temperature: 54°F , 12°C
Dew Point: 50°F , 10°C
Humidity: 88%
Barometer: 30.05 inHg , 1017.6 hPa
Clouds: Overcast
Visibility: 10 miles , 16 km
Cloud details: Overcast 1400 ft
2019/11/14 09:35 KE16 140935Z AUTO 13006KT 10SM OVC014 12/10 A3005 RMK AO2
KWVI - Watsonville, California, USA
Distance from station: SSE 27mi, 44km
Updated: 01,20/2020 6:53am
Clear
Clear
 Wind from W
Wind: W 3 mph , 6 km/h
Temperature: 48°F , 9°C
Dew Point: 41°F , 5°C
Humidity: 76%
Barometer: 30.01 inHg , 1016.3 hPa
Clouds: Clear
Visibility: 10 miles , 16 km
2020/01/20 11:53 KWVI 201153Z AUTO 28003KT 10SM CLR 09/05 A3001 RMK AO2 SLP161 T00890050 10094 20078 58003
 
KHAF - Half Moon Bay, California, USA
Distance from station: WNW 31mi, 50km
Updated: 01,20/2020 7:00am
Partly cloudy
Partly cloudy
 Wind from calm
Wind: Calm
Temperature: 50°F , 10°C
Dew Point: 41°F , 5°C
Humidity: 71%
Barometer: 30.00 inHg , 1015.9 hPa
Clouds: Partly cloudy
Visibility: 10 miles , 16 km
Cloud details: Partly cloudy 11000 ft
2020/01/20 12:00 KHAF 201200Z AUTO 00000KT 10SM SCT110 10/05 A3000 RMK AO2
KHWD - Hayward, California, USA
Distance from station: N 28mi, 44km
Updated: 01,20/2020 6:54am
Clear
Clear
 Wind from calm
Wind: Calm
Temperature: 46°F , 8°C
Dew Point: 39°F , 4°C
Humidity: 76%
Barometer: 30.01 inHg , 1016.3 hPa
Clouds: Clear
Visibility: 10 miles , 16 km
2020/01/20 11:54 KHWD 201154Z 00000KT 10SM CLR 08/04 A3001 RMK AO2 SLP173 T00780044 10089 20072 58002
KLVK - Livermore, California, USA
Distance from station: NNE 31mi, 51km
Updated: 01,20/2020 6:53am
Mist, Clear
Mist, Clear
 Wind from calm
Wind: Calm
Temperature: 41°F , 5°C
Dew Point: 39°F , 4°C
Humidity: 93%
Barometer: 30.02 inHg , 1016.6 hPa
Summary: Mist
Clouds: Clear
Visibility: 4 miles , 6 km
2020/01/20 11:53 KLVK 201153Z AUTO 00000KT 4SM BR CLR 05/04 A3002 RMK AO2 SLP166 T00500044 10056 20050 56010